/database/ambient_hr.db
nametemperaturehumiditybatterytime
ilp-imu-01 21.56 58.0 2.493 2024.06.20 03:15:17
ilp-imu-02 23.91 55.0 2.327 2024.06.19 04:15:45
ilp-kake-01 21.2 55.2 0.0 2024.06.20 03:15:07
kalamaja-01 18.74 64.0 2.601 2024.06.20 03:15:20
kalamaja-02 18.32 66.0 2.579 2024.06.20 03:15:13
keittio-01 21.2 54.9 0.0 2024.06.20 03:10:46
koppi-01 11.39 76.0 2.086 2024.06.12 08:50:42
lvv-01 47.1 13.0 2.379 2024.01.16 10:20:27
mh-01 21.5 56.5 0.0 2024.06.20 03:10:10
mh-nurkka-02 19.83 64.0 2.561 2024.06.20 03:10:26
oh-01 21.8 54.7 0.0 2024.06.20 03:10:17
parvi-01 22.3 52.6 0.0 2024.06.20 03:10:23
poisto-01 20.7 59.9 0.0 2024.06.20 03:10:07
porras-01 22.55 53.0 2.693 2024.06.20 03:10:40
studio-01 22.98 51.0 2.939 2024.06.20 03:10:27
studio-02 22.81 51.0 2.542 2024.06.20 03:10:20
studio-nurkka-01 20.78 54.0 2.309 2024.06.20 03:10:29
studio-nurkka-02 21.34 51.0 2.363 2024.06.20 03:10:23
tv-01 22.6 51.1 0.0 2024.06.20 03:10:31
ulko-01 13.08 81.0 2.433 2024.06.20 03:10:14
ulko-02 12.82 88.0 2.4 2024.06.20 03:11:02
wc-01 21.0 71.3 0.0 2024.06.20 03:15:09

/database/ambient.db
nametemperaturehumiditybatterytime
ilp-imu-01 21.61 58.0 2.493 2024.06.20 03:00:20
ilp-imu-02 23.8 60.0 2.344 2024.06.17 20:00:54
ilp-kake-01 21.2 54.8 0.0 2024.06.20 03:00:07
kalamaja-01 18.77 64.0 2.616 2024.06.20 03:00:11
kalamaja-02 18.4 66.0 2.579 2024.06.20 03:00:26
keittio-01 21.2 54.9 0.0 2024.06.20 02:41:00
koppi-01 11.29 76.0 2.086 2024.06.12 08:40:30
lvv-01 47.1 13.0 2.379 2024.01.16 10:20:27
mh-01 21.5 56.6 0.0 2024.06.20 03:00:08
mh-nurkka-02 19.87 64.0 2.561 2024.06.20 03:00:10
oh-01 21.9 54.7 0.0 2024.06.20 03:00:24
parvi-01 22.3 52.9 0.0 2024.06.20 03:00:13
poisto-01 20.7 60.0 0.0 2024.06.20 03:00:20
porras-01 22.56 53.0 2.693 2024.06.20 03:00:23
studio-01 23.02 51.0 2.939 2024.06.20 03:00:18
studio-02 22.85 51.0 2.542 2024.06.20 03:00:29
studio-nurkka-01 20.79 54.0 2.315 2024.06.20 03:01:01
studio-nurkka-02 21.36 51.0 2.368 2024.06.20 03:00:37
tv-01 22.6 50.8 0.0 2024.06.20 03:00:57
ulko-01 13.2 81.0 2.417 2024.06.20 03:00:13
ulko-02 12.93 89.0 2.45 2024.06.20 03:00:46
wc-01 21.0 70.9 0.0 2024.06.20 03:00:24

/database/instrument.db
nametemperaturehumiditybatterytime
apc-tt01 19.87 40.0 2.09 2024.04.19 13:40:22
kaappi01-01 19.7 54.0 0.0 2022.09.02 15:00:22
tho-dlx-tenor01 19.88 40.0 2.356 2024.03.04 07:41:07
uke01-01 20.91 39.0 2.089 2024.05.13 03:00:41